createdAt,value
2023-03-14T00:54:25.974Z,11.25
2023-03-14T01:23:04.630Z,11.04
2023-03-14T01:51:29.707Z,10.85
2023-03-14T02:19:58.830Z,10.71
2023-03-14T02:48:36.107Z,10.68
2023-03-14T03:17:08.450Z,10.72
2023-03-14T03:45:41.642Z,10.65
2023-03-14T04:14:14.877Z,10.51
2023-03-14T04:42:51.150Z,10.45
2023-03-14T05:11:28.068Z,10.35
2023-03-14T05:39:58.788Z,10.57
2023-03-14T06:08:37.868Z,10.54
2023-03-14T06:37:04.896Z,10.82
2023-03-14T07:05:38.445Z,11.18
2023-03-14T07:34:14.108Z,11.38
2023-03-14T08:02:51.830Z,11.74
2023-03-14T08:31:23.549Z,11.93
2023-03-14T08:59:51.163Z,12.62
2023-03-14T09:28:32.237Z,12.9
2023-03-14T09:57:06.336Z,11.73
2023-03-14T10:25:26.068Z,11.09
2023-03-14T10:53:40.368Z,11.28
2023-03-14T11:22:10.720Z,10.34
2023-03-14T11:50:36.079Z,10.5
2023-03-14T12:18:55.502Z,10.79
2023-03-14T12:47:08.488Z,10.3
2023-03-14T13:15:31.033Z,10.13
2023-03-14T13:43:50.946Z,9.87
2023-03-14T14:12:28.159Z,10.26
2023-03-14T14:41:00.608Z,9.85
2023-03-14T15:09:37.326Z,10.48
2023-03-14T15:37:50.583Z,9.99
2023-03-14T16:06:19.921Z,9.69
2023-03-14T16:34:41.381Z,7.89
2023-03-14T17:03:04.763Z,7.89
2023-03-14T17:31:23.356Z,7.25
2023-03-14T17:59:57.403Z,7.08
2023-03-14T18:28:21.404Z,7.27
2023-03-14T18:56:50.744Z,7.2
2023-03-14T19:25:06.548Z,7.41
2023-03-14T19:53:33.182Z,7.25
2023-03-14T20:21:50.839Z,6.51
2023-03-14T20:50:19.689Z,6.03
2023-03-14T21:18:52.072Z,5.9
2023-03-14T21:47:12.690Z,5.66
2023-03-14T22:15:50.331Z,5.14
2023-03-14T22:44:28.203Z,5.02
2023-03-14T23:13:00.948Z,5.13
2023-03-14T23:41:42.235Z,4.94
